Time;durP1;ratioP1;P1;durP2;ratioP2;P2;SDS_P1;SDS_P2;PMS_P1;PMS_P2;Temp;Humidity;BMP_temperature;BMP_pressure;BME280_temperature;BME280_humidity;BME280_pressure;Samples;Min_cycle;Max_cycle;Signal;HPM_P1;HPM_P2
2021/09/09 00:01:03;;;;;;;11.77;7.90;;;19.50;99.90;;;;;;5080939;28;20538;-71
2021/09/09 00:03:30;;;;;;;11.57;8.50;;;19.40;99.90;;;;;;5076683;28;20489;-70
2021/09/09 00:05:57;;;;;;;10.13;7.00;;;19.30;99.90;;;;;;5074232;28;20493;-71
2021/09/09 00:08:24;;;;;;;9.47;6.93;;;19.20;99.90;;;;;;5081838;28;20574;-71
2021/09/09 00:10:51;;;;;;;9.80;6.90;;;19.30;99.90;;;;;;5077415;28;20488;-71
2021/09/09 00:13:19;;;;;;;11.20;7.37;;;19.40;99.90;;;;;;5084744;28;20492;-70
2021/09/09 00:15:46;;;;;;;11.00;8.27;;;19.30;99.90;;;;;;5080893;28;21129;-70
2021/09/09 00:18:14;;;;;;;11.47;7.63;;;19.20;99.90;;;;;;5083599;28;20457;-71
2021/09/09 00:20:41;;;;;;;11.43;7.33;;;19.20;99.90;;;;;;5083075;28;20533;-72
2021/09/09 00:23:08;;;;;;;13.23;7.70;;;19.10;99.90;;;;;;5073527;28;20548;-70
2021/09/09 00:25:36;;;;;;;15.23;7.53;;;19.10;99.90;;;;;;5079666;28;20477;-69
2021/09/09 00:28:03;;;;;;;13.03;7.93;;;19.10;99.90;;;;;;5074793;28;20450;-71
2021/09/09 00:30:31;;;;;;;11.97;9.37;;;19.00;99.90;;;;;;5076181;28;20594;-71
2021/09/09 00:32:58;;;;;;;10.20;7.67;;;19.00;99.90;;;;;;5076734;28;20528;-71
2021/09/09 00:35:25;;;;;;;12.57;7.97;;;19.00;99.90;;;;;;5073269;28;20530;-70
2021/09/09 00:37:52;;;;;;;15.30;7.57;;;18.90;99.90;;;;;;5075689;28;20450;-70
2021/09/09 00:40:18;;;;;;;10.40;7.50;;;18.90;99.90;;;;;;5075579;28;20867;-70
2021/09/09 00:42:45;;;;;;;11.20;7.63;;;18.90;99.90;;;;;;5072496;28;20450;-69
2021/09/09 00:45:13;;;;;;;12.03;7.53;;;18.90;99.90;;;;;;5077894;28;21001;-70
2021/09/09 00:47:41;;;;;;;13.13;7.20;;;18.90;99.90;;;;;;5075927;28;20453;-69
2021/09/09 00:50:09;;;;;;;9.10;6.73;;;18.80;99.90;;;;;;5080325;28;20616;-71
2021/09/09 00:52:36;;;;;;;10.00;7.50;;;18.90;99.90;;;;;;5085392;28;20450;-71
2021/09/09 00:55:05;;;;;;;17.50;9.23;;;18.80;99.90;;;;;;5079136;28;20911;-70
2021/09/09 00:57:32;;;;;;;10.93;7.87;;;18.80;99.90;;;;;;5082485;28;20625;-70
2021/09/09 00:59:59;;;;;;;11.53;6.70;;;18.70;99.90;;;;;;5089775;28;20486;-71
2021/09/09 01:02:26;;;;;;;12.60;8.07;;;18.70;99.90;;;;;;5087657;28;20533;-70
2021/09/09 01:04:55;;;;;;;15.20;8.53;;;18.60;99.90;;;;;;5078458;28;20557;-71
2021/09/09 01:07:22;;;;;;;11.00;7.43;;;18.60;99.90;;;;;;5081701;28;20534;-70
2021/09/09 01:09:49;;;;;;;12.80;7.90;;;18.60;99.90;;;;;;5078804;28;20585;-71
2021/09/09 01:12:16;;;;;;;10.93;8.20;;;18.60;99.90;;;;;;5078250;28;20572;-70
2021/09/09 01:14:43;;;;;;;9.53;7.50;;;18.50;99.90;;;;;;5081521;28;20905;-71
2021/09/09 01:17:10;;;;;;;13.00;8.50;;;18.50;99.90;;;;;;5080753;28;20485;-70
2021/09/09 01:19:36;;;;;;;14.33;8.23;;;18.40;99.90;;;;;;5082957;28;20533;-69
2021/09/09 01:22:05;;;;;;;17.30;8.27;;;18.40;99.90;;;;;;5085270;28;20453;-70
2021/09/09 01:24:34;;;;;;;9.80;7.77;;;18.40;99.90;;;;;;5076444;28;20469;-70
2021/09/09 01:27:04;;;;;;;11.50;8.07;;;18.40;99.90;;;;;;5076921;28;20521;-69
2021/09/09 01:29:34;;;;;;;14.33;8.03;;;18.30;99.90;;;;;;5081805;28;21031;-70
2021/09/09 01:32:01;;;;;;;11.47;8.93;;;18.30;99.90;;;;;;5082717;28;20485;-71
2021/09/09 01:34:29;;;;;;;13.20;8.13;;;18.30;99.90;;;;;;5083083;28;20509;-71
2021/09/09 01:36:57;;;;;;;11.53;8.13;;;18.30;99.90;;;;;;5085515;28;21069;-71
2021/09/09 01:39:24;;;;;;;11.90;7.93;;;18.30;99.90;;;;;;5083404;28;20894;-71
2021/09/09 01:41:54;;;;;;;21.90;9.50;;;18.30;99.90;;;;;;5077314;28;21029;-70
2021/09/09 01:44:22;;;;;;;11.17;8.50;;;18.30;99.90;;;;;;5075084;28;20468;-71
2021/09/09 01:46:50;;;;;;;13.73;8.70;;;18.30;99.90;;;;;;5073644;28;20517;-71
2021/09/09 01:49:18;;;;;;;15.43;9.27;;;18.30;99.90;;;;;;5076560;28;21190;-70
2021/09/09 01:51:45;;;;;;;14.13;9.40;;;18.30;99.90;;;;;;5076471;28;20460;-70
2021/09/09 01:54:12;;;;;;;15.17;9.13;;;18.10;99.90;;;;;;5080912;28;20529;-71
2021/09/09 01:56:39;;;;;;;13.93;9.40;;;18.00;99.90;;;;;;5077991;28;20541;-71
2021/09/09 01:59:07;;;;;;;11.50;7.97;;;18.00;99.90;;;;;;5083385;28;20507;-70
2021/09/09 02:01:34;;;;;;;13.07;8.50;;;18.00;99.90;;;;;;5085340;28;20450;-71
2021/09/09 02:04:02;;;;;;;12.40;9.20;;;18.00;99.90;;;;;;5073926;28;20978;-71
2021/09/09 02:06:28;;;;;;;10.77;7.70;;;18.00;99.90;;;;;;5082564;28;20475;-70
2021/09/09 02:08:55;;;;;;;14.70;9.80;;;18.00;99.90;;;;;;5078746;28;20966;-70
2021/09/09 02:11:24;;;;;;;14.80;10.60;;;18.00;99.90;;;;;;5077538;28;20496;-71
2021/09/09 02:13:52;;;;;;;13.07;8.27;;;17.90;99.90;;;;;;5073245;28;20473;-70
2021/09/09 02:16:20;;;;;;;15.70;11.27;;;17.80;99.90;;;;;;5077908;28;20515;-70
2021/09/09 02:18:47;;;;;;;15.10;9.30;;;17.70;99.90;;;;;;5085565;28;20532;-70
2021/09/09 02:21:15;;;;;;;11.33;7.50;;;17.50;99.90;;;;;;5077443;28;20534;-70
2021/09/09 02:23:42;;;;;;;15.90;8.27;;;17.50;99.90;;;;;;5073818;28;20520;-69
2021/09/09 02:26:09;;;;;;;13.33;8.57;;;17.60;99.90;;;;;;5080275;28;20473;-70
2021/09/09 02:28:36;;;;;;;14.03;9.27;;;17.60;99.90;;;;;;5072275;28;20940;-70
2021/09/09 02:31:03;;;;;;;15.30;8.07;;;17.60;99.90;;;;;;5075151;28;20829;-69
2021/09/09 02:33:31;;;;;;;22.60;9.80;;;17.50;99.90;;;;;;5080240;28;20450;-70
2021/09/09 02:35:58;;;;;;;11.43;9.63;;;17.50;99.90;;;;;;5076104;28;20558;-70
2021/09/09 02:38:26;;;;;;;16.80;10.53;;;17.60;99.90;;;;;;5080840;28;20447;-71
2021/09/09 02:40:53;;;;;;;11.17;9.00;;;17.60;99.90;;;;;;5078382;28;20541;-71
2021/09/09 02:43:21;;;;;;;12.30;9.30;;;17.50;99.90;;;;;;5079178;28;20548;-70
2021/09/09 02:45:48;;;;;;;15.43;10.07;;;17.50;99.90;;;;;;5082016;28;20476;-70
2021/09/09 02:48:15;;;;;;;13.17;8.63;;;17.50;99.90;;;;;;5083196;28;20882;-71
2021/09/09 02:50:43;;;;;;;15.03;9.23;;;17.50;99.90;;;;;;5078699;28;20517;-71
2021/09/09 02:53:10;;;;;;;12.10;8.63;;;17.40;99.90;;;;;;5078544;28;20481;-71
2021/09/09 02:55:37;;;;;;;14.10;9.23;;;17.50;99.90;;;;;;5081221;28;20564;-70
2021/09/09 02:58:04;;;;;;;13.13;8.23;;;17.40;99.90;;;;;;5080810;28;20537;-71
2021/09/09 03:00:31;;;;;;;17.47;10.80;;;17.40;99.90;;;;;;5080448;28;20529;-70
2021/09/09 03:02:58;;;;;;;14.80;10.17;;;17.50;99.90;;;;;;5078904;28;20544;-70
2021/09/09 03:05:25;;;;;;;11.97;8.97;;;17.50;99.90;;;;;;5080066;28;20557;-71
2021/09/09 03:07:53;;;;;;;12.93;8.07;;;17.50;99.90;;;;;;5082300;28;20529;-72
2021/09/09 03:10:20;;;;;;;17.70;10.57;;;17.50;99.90;;;;;;5083917;28;20557;-71
2021/09/09 03:12:47;;;;;;;16.00;10.50;;;17.50;99.90;;;;;;5079600;28;20711;-71
2021/09/09 03:15:14;;;;;;;13.80;8.93;;;17.40;99.90;;;;;;5075456;28;20589;-71
2021/09/09 03:17:41;;;;;;;12.43;9.17;;;17.40;99.90;;;;;;5082290;28;20490;-71
2021/09/09 03:20:09;;;;;;;13.40;9.53;;;17.50;99.90;;;;;;5075211;28;20529;-71
2021/09/09 03:22:36;;;;;;;20.60;10.60;;;17.50;99.90;;;;;;5079539;28;20454;-69
2021/09/09 03:25:05;;;;;;;16.37;9.97;;;17.40;99.90;;;;;;5082703;28;20547;-71
2021/09/09 03:27:32;;;;;;;13.23;8.53;;;17.40;99.90;;;;;;5076139;28;20491;-71
2021/09/09 03:29:58;;;;;;;12.27;8.40;;;17.30;99.90;;;;;;5082681;28;20501;-71
2021/09/09 03:32:25;;;;;;;18.20;12.30;;;17.30;99.90;;;;;;5079351;28;20500;-70
2021/09/09 03:34:52;;;;;;;13.50;10.67;;;17.20;99.90;;;;;;5072773;28;20477;-70
2021/09/09 03:37:19;;;;;;;22.40;11.17;;;17.20;99.90;;;;;;5077628;28;20536;-69
2021/09/09 03:39:46;;;;;;;25.77;10.63;;;17.20;99.90;;;;;;5073103;28;20452;-70
2021/09/09 03:42:14;;;;;;;13.47;10.17;;;17.30;99.90;;;;;;5081335;28;20438;-71
2021/09/09 03:44:41;;;;;;;15.33;10.70;;;17.30;99.90;;;;;;5082896;28;20560;-71
2021/09/09 03:47:08;;;;;;;16.80;10.23;;;17.20;99.90;;;;;;5079000;28;20848;-70
2021/09/09 03:49:36;;;;;;;15.10;9.87;;;17.20;99.90;;;;;;5074148;28;20979;-72
2021/09/09 03:52:04;;;;;;;15.10;9.80;;;17.10;99.90;;;;;;5082273;28;20477;-71
2021/09/09 03:54:30;;;;;;;18.40;9.60;;;17.20;99.90;;;;;;5077763;28;20580;-69
2021/09/09 03:56:57;;;;;;;16.17;10.17;;;17.20;99.90;;;;;;5079283;28;20560;-71
2021/09/09 03:59:26;;;;;;;15.30;9.70;;;17.20;99.90;;;;;;5080018;28;20930;-69
2021/09/09 04:01:53;;;;;;;18.90;10.43;;;17.20;99.90;;;;;;5081002;28;20602;-70
2021/09/09 04:04:20;;;;;;;16.03;8.90;;;17.20;99.90;;;;;;5065776;28;20585;-70
2021/09/09 04:06:46;;;;;;;16.10;9.50;;;17.10;99.90;;;;;;5075275;28;20491;-70
2021/09/09 04:09:13;;;;;;;13.07;9.13;;;17.10;99.90;;;;;;5079810;28;21526;-70
2021/09/09 04:11:40;;;;;;;14.83;10.63;;;17.10;99.90;;;;;;5080586;28;20517;-70
2021/09/09 04:14:07;;;;;;;16.60;12.33;;;17.10;99.90;;;;;;5071823;28;20530;-71
2021/09/09 04:16:36;;;;;;;21.33;9.50;;;17.00;99.90;;;;;;5080821;28;20478;-71
2021/09/09 04:19:03;;;;;;;15.73;9.77;;;16.90;99.90;;;;;;5076948;28;20494;-70
2021/09/09 04:21:30;;;;;;;14.87;8.73;;;16.70;99.90;;;;;;5078490;28;20493;-70
2021/09/09 04:23:57;;;;;;;15.67;10.30;;;16.70;99.90;;;;;;5079268;28;20485;-70
2021/09/09 04:26:24;;;;;;;15.50;9.77;;;16.80;99.90;;;;;;5076577;28;20497;-70
2021/09/09 04:28:51;;;;;;;18.47;10.37;;;16.80;99.90;;;;;;5083180;28;20519;-70
2021/09/09 04:31:17;;;;;;;21.90;11.13;;;16.90;99.90;;;;;;5085143;28;21070;-70
2021/09/09 04:33:46;;;;;;;17.63;10.00;;;16.90;99.90;;;;;;5085259;28;20553;-71
2021/09/09 04:36:13;;;;;;;17.30;8.30;;;16.90;99.90;;;;;;5079042;28;20604;-71
2021/09/09 04:38:40;;;;;;;16.80;9.67;;;16.90;99.90;;;;;;5069630;28;20654;-70
2021/09/09 04:41:07;;;;;;;13.60;8.57;;;17.00;99.90;;;;;;5077748;28;20453;-70
2021/09/09 04:43:34;;;;;;;16.80;10.10;;;17.00;99.90;;;;;;5077837;28;20532;-71
2021/09/09 04:46:01;;;;;;;19.27;10.63;;;16.90;99.90;;;;;;5084789;28;20480;-71
2021/09/09 04:48:28;;;;;;;17.57;9.90;;;16.80;99.90;;;;;;5084811;28;20828;-71
2021/09/09 04:50:57;;;;;;;16.17;9.00;;;16.80;99.90;;;;;;5080098;28;20568;-71
2021/09/09 04:53:23;;;;;;;14.00;8.70;;;16.70;99.90;;;;;;5083851;28;20884;-71
2021/09/09 04:55:50;;;;;;;13.17;9.20;;;16.80;99.90;;;;;;5076776;28;20534;-70
2021/09/09 04:58:17;;;;;;;12.27;8.80;;;16.70;99.90;;;;;;5075764;28;20457;-71
2021/09/09 05:00:44;;;;;;;14.70;9.00;;;16.70;99.90;;;;;;5080682;28;20824;-70
2021/09/09 05:03:11;;;;;;;13.47;7.60;;;16.80;99.90;;;;;;5082276;28;20942;-69
2021/09/09 05:05:38;;;;;;;17.10;10.00;;;16.60;99.90;;;;;;5074634;28;21009;-72
2021/09/09 05:08:07;;;;;;;16.20;8.53;;;16.70;99.90;;;;;;5074906;28;20924;-70
2021/09/09 05:10:34;;;;;;;16.80;11.37;;;16.70;99.90;;;;;;5068790;28;22145;-71
2021/09/09 05:13:01;;;;;;;13.93;8.97;;;16.80;99.90;;;;;;5077826;28;20843;-69
2021/09/09 05:15:28;;;;;;;13.37;8.90;;;16.80;99.90;;;;;;5072368;28;20481;-72
2021/09/09 05:17:55;;;;;;;16.50;12.40;;;16.80;99.90;;;;;;5069410;28;20467;-69
2021/09/09 05:20:22;;;;;;;13.80;9.90;;;16.80;99.90;;;;;;5076277;28;20449;-71
2021/09/09 05:22:49;;;;;;;15.10;10.10;;;16.80;99.90;;;;;;5071257;28;20442;-71
2021/09/09 05:25:18;;;;;;;14.37;9.47;;;16.90;99.90;;;;;;5077102;28;20921;-70
2021/09/09 05:27:45;;;;;;;21.40;10.53;;;16.90;99.90;;;;;;5071633;28;20553;-70
2021/09/09 05:30:12;;;;;;;14.80;8.77;;;16.70;99.90;;;;;;5076614;28;20930;-71
2021/09/09 05:32:39;;;;;;;17.80;9.57;;;16.40;99.90;;;;;;5078613;28;20532;-70
2021/09/09 05:35:07;;;;;;;16.17;9.37;;;16.40;99.90;;;;;;5066862;28;20531;-70
2021/09/09 05:37:34;;;;;;;11.47;8.30;;;16.30;99.90;;;;;;5081431;28;20902;-68
2021/09/09 05:40:01;;;;;;;18.27;9.93;;;16.40;99.90;;;;;;5087120;28;20536;-69
2021/09/09 05:42:29;;;;;;;13.23;8.33;;;16.60;99.90;;;;;;5081251;28;20528;-70
2021/09/09 05:44:56;;;;;;;13.10;8.97;;;16.80;99.90;;;;;;5082118;28;20478;-70
2021/09/09 05:47:24;;;;;;;26.37;19.80;;;16.90;99.90;;;;;;5080573;28;20474;-70
2021/09/09 05:49:51;;;;;;;15.43;10.77;;;17.00;99.90;;;;;;5075884;28;20485;-71
2021/09/09 05:52:20;;;;;;;17.97;10.43;;;17.00;99.90;;;;;;5082635;28;20490;-71
2021/09/09 05:54:47;;;;;;;14.40;9.00;;;17.00;99.90;;;;;;5076998;28;20478;-71
2021/09/09 05:57:14;;;;;;;24.30;11.47;;;17.20;99.90;;;;;;5080419;28;20559;-71
2021/09/09 05:59:42;;;;;;;13.57;9.07;;;17.80;99.90;;;;;;5073536;28;26058;-71
2021/09/09 06:02:15;;;;;;;15.33;9.13;;;18.40;99.90;;;;;;5073944;28;21099;-70
2021/09/09 06:04:42;;;;;;;15.57;9.17;;;18.70;99.90;;;;;;5075861;28;21008;-69
2021/09/09 06:07:10;;;;;;;13.90;8.63;;;18.90;99.90;;;;;;5078887;28;20502;-70
2021/09/09 06:09:39;;;;;;;14.63;8.07;;;19.00;99.90;;;;;;5075293;28;20825;-71
2021/09/09 06:12:07;;;;;;;14.00;10.07;;;19.20;99.90;;;;;;5080804;28;20494;-70
2021/09/09 06:14:34;;;;;;;15.40;9.07;;;19.50;99.90;;;;;;5081740;28;20574;-70
2021/09/09 06:17:02;;;;;;;14.10;9.07;;;20.00;99.90;;;;;;5066308;28;20481;-71
2021/09/09 06:19:29;;;;;;;14.63;9.33;;;20.70;99.90;;;;;;5071560;28;20499;-73
2021/09/09 06:21:57;;;;;;;13.93;9.53;;;21.20;99.90;;;;;;5079526;28;20536;-72
2021/09/09 06:24:25;;;;;;;16.93;8.80;;;21.70;99.90;;;;;;5075468;28;20961;-71
2021/09/09 06:26:52;;;;;;;12.40;9.17;;;21.60;99.90;;;;;;5077841;28;20490;-71
2021/09/09 06:29:19;;;;;;;15.57;9.13;;;21.60;99.90;;;;;;5072413;28;20485;-70
2021/09/09 06:31:46;;;;;;;17.73;9.10;;;21.60;99.90;;;;;;5066439;28;21025;-69
2021/09/09 06:34:14;;;;;;;14.33;11.67;;;21.70;99.90;;;;;;5073525;28;20556;-69
2021/09/09 06:36:41;;;;;;;13.90;9.60;;;22.00;99.90;;;;;;5073975;28;20465;-69
2021/09/09 06:39:08;;;;;;;15.60;10.90;;;22.10;99.90;;;;;;5063985;28;20484;-69
2021/09/09 06:41:35;;;;;;;17.90;10.80;;;22.10;99.90;;;;;;5071815;28;21138;-71
2021/09/09 06:44:02;;;;;;;13.70;9.93;;;21.90;99.90;;;;;;5076458;28;21965;-70
2021/09/09 06:46:29;;;;;;;11.57;9.53;;;22.10;99.90;;;;;;5070003;28;20476;-70
2021/09/09 06:48:56;;;;;;;13.33;9.60;;;22.40;99.90;;;;;;5076440;28;20588;-71
2021/09/09 06:51:24;;;;;;;18.07;9.77;;;22.80;99.90;;;;;;5067025;28;20640;-71
2021/09/09 06:53:51;;;;;;;13.93;10.50;;;23.50;99.90;;;;;;5065354;28;20496;-71
2021/09/09 06:56:18;;;;;;;15.67;9.63;;;24.30;99.90;;;;;;5077608;28;20482;-71
2021/09/09 06:58:45;;;;;;;12.60;9.20;;;24.50;99.90;;;;;;5072477;28;20539;-70
2021/09/09 07:01:12;;;;;;;12.17;9.00;;;25.00;99.90;;;;;;5072309;28;20477;-70
2021/09/09 07:03:39;;;;;;;11.27;8.97;;;24.80;99.90;;;;;;5074501;28;20496;-71
2021/09/09 07:06:07;;;;;;;12.10;7.73;;;24.60;99.90;;;;;;5069789;28;20469;-69
2021/09/09 07:08:35;;;;;;;13.03;8.60;;;24.40;99.90;;;;;;5064956;28;20518;-70
2021/09/09 07:11:02;;;;;;;15.57;7.83;;;24.20;99.90;;;;;;5069094;28;20990;-70
2021/09/09 07:13:29;;;;;;;12.67;9.27;;;24.40;99.90;;;;;;5069056;28;20491;-72
2021/09/09 07:15:57;;;;;;;13.70;9.17;;;24.10;99.90;;;;;;5075603;28;20485;-71
2021/09/09 07:18:24;;;;;;;12.33;8.67;;;24.10;99.90;;;;;;5079443;28;20464;-69
2021/09/09 07:20:51;;;;;;;15.03;10.83;;;24.00;99.90;;;;;;5069942;28;20462;-72
2021/09/09 07:23:19;;;;;;;12.83;8.17;;;24.60;99.90;;;;;;5062380;28;20460;-71
2021/09/09 07:25:48;;;;;;;19.17;8.43;;;24.50;99.90;;;;;;5071996;28;21022;-71
2021/09/09 07:28:16;;;;;;;13.83;9.13;;;25.10;99.90;;;;;;5074142;28;20545;-71
2021/09/09 07:30:43;;;;;;;12.37;8.87;;;25.10;99.90;;;;;;5077748;28;20504;-71
2021/09/09 07:33:10;;;;;;;18.27;9.40;;;24.50;99.90;;;;;;5072959;28;20488;-70
2021/09/09 07:35:37;;;;;;;10.80;8.47;;;23.80;99.90;;;;;;5066165;28;21067;-72
2021/09/09 07:38:04;;;;;;;14.30;9.60;;;23.30;99.90;;;;;;5067921;28;21045;-71
2021/09/09 07:40:31;;;;;;;10.07;8.03;;;23.20;99.90;;;;;;5066774;28;20511;-70
2021/09/09 07:43:00;;;;;;;12.13;7.37;;;22.90;99.90;;;;;;5072831;28;20446;-70
2021/09/09 07:45:29;;;;;;;12.63;8.77;;;22.70;99.90;;;;;;5076244;28;20479;-71
2021/09/09 07:47:55;;;;;;;11.70;7.63;;;23.10;99.90;;;;;;5077627;28;20489;-72
2021/09/09 07:50:22;;;;;;;12.23;8.97;;;23.30;99.90;;;;;;5086497;28;20492;-70
2021/09/09 07:52:49;;;;;;;12.47;8.20;;;23.30;99.90;;;;;;5083224;28;20502;-69
2021/09/09 07:55:18;;;;;;;9.40;6.90;;;23.30;99.90;;;;;;5074639;28;20556;-69
2021/09/09 07:57:45;;;;;;;12.97;8.03;;;24.00;99.90;;;;;;5077687;28;20458;-70
2021/09/09 08:00:15;;;;;;;11.00;7.27;;;24.50;99.90;;;;;;5075316;28;20465;-70
2021/09/09 08:02:43;;;;;;;17.47;7.87;;;25.60;99.90;;;;;;5076272;28;20462;-71
2021/09/09 08:05:10;;;;;;;9.33;6.67;;;27.20;99.90;;;;;;5078430;28;20505;-71
2021/09/09 08:07:41;;;;;;;19.17;7.90;;;27.90;99.90;;;;;;5077414;28;20481;-70
2021/09/09 08:10:10;;;;;;;11.40;7.50;;;27.80;99.90;;;;;;5079533;28;20453;-70
2021/09/09 08:12:37;;;;;;;11.00;7.07;;;28.90;99.90;;;;;;5073780;28;20513;-69
2021/09/09 08:15:04;;;;;;;12.50;8.70;;;29.20;99.90;;;;;;5078223;28;20561;-71
2021/09/09 08:17:32;;;;;;;12.23;7.90;;;30.40;99.90;;;;;;5075501;28;20457;-70
2021/09/09 08:19:59;;;;;;;14.00;8.20;;;29.90;99.90;;;;;;5075931;28;20862;-71
2021/09/09 08:22:26;;;;;;;13.13;7.87;;;29.90;99.90;;;;;;5073198;28;20830;-72
2021/09/09 08:24:53;;;;;;;12.40;8.00;;;30.20;99.90;;;;;;5076147;28;20470;-71
2021/09/09 08:27:21;;;;;;;10.20;6.93;;;30.50;99.90;;;;;;5078833;28;20805;-70
2021/09/09 08:29:48;;;;;;;10.17;8.00;;;31.50;99.90;;;;;;5079758;28;20975;-71
2021/09/09 08:32:15;;;;;;;12.60;6.73;;;32.10;99.90;;;;;;5080308;28;20506;-71
2021/09/09 08:34:43;;;;;;;10.57;7.63;;;32.20;99.90;;;;;;5078255;28;20556;-71
2021/09/09 08:37:10;;;;;;;13.13;8.23;;;32.90;99.90;;;;;;5065591;28;20461;-72
2021/09/09 08:39:37;;;;;;;7.90;6.50;;;33.20;99.90;;;;;;5073859;28;20469;-70
2021/09/09 08:42:04;;;;;;;16.17;7.80;;;33.00;99.20;;;;;;5079895;28;20522;-72
2021/09/09 08:44:31;;;;;;;11.50;8.40;;;33.70;98.60;;;;;;5075786;28;20562;-72
2021/09/09 08:47:01;;;;;;;14.87;7.80;;;33.70;98.40;;;;;;5076810;28;20490;-70
2021/09/09 08:49:28;;;;;;;14.20;7.00;;;34.40;96.00;;;;;;5081817;28;20564;-72
2021/09/09 08:51:58;;;;;;;11.90;7.10;;;35.10;94.50;;;;;;5076170;28;21092;-72
2021/09/09 08:54:26;;;;;;;12.10;8.47;;;35.00;94.90;;;;;;5080507;28;21256;-72
2021/09/09 08:56:53;;;;;;;17.13;7.60;;;35.10;94.30;;;;;;5079786;28;20466;-68
2021/09/09 08:59:20;;;;;;;11.40;8.30;;;35.70;93.60;;;;;;5079498;28;20530;-69
2021/09/09 09:02:05;;;;;;;7.93;6.90;;;35.30;93.60;;;;;;5079648;28;20541;-71
2021/09/09 09:08:00;;;;;;;9.10;7.23;;;35.30;90.90;;;;;;5075350;28;20936;-71
2021/09/09 09:10:27;;;;;;;12.37;7.00;;;34.50;91.40;;;;;;5079003;28;20547;-68
2021/09/09 09:12:54;;;;;;;8.60;6.30;;;34.50;91.60;;;;;;5084868;28;20493;-70
2021/09/09 09:15:24;;;;;;;8.97;6.83;;;34.30;89.90;;;;;;5077239;28;21017;-70
2021/09/09 09:17:59;;;;;;;6.77;5.63;;;35.10;86.60;;;;;;5071343;28;20525;-71
2021/09/09 09:20:35;;;;;;;9.53;6.30;;;35.20;90.00;;;;;;5071942;28;20573;-70
2021/09/09 09:23:12;;;;;;;12.27;6.53;;;35.80;85.20;;;;;;5071734;28;20480;-70
2021/09/09 09:25:47;;;;;;;16.13;7.40;;;34.90;88.00;;;;;;5062654;28;20566;-70
2021/09/09 09:28:14;;;;;;;14.27;8.10;;;35.60;86.50;;;;;;5075502;28;20476;-71
2021/09/09 09:31:01;;;;;;;11.00;6.60;;;36.30;85.40;;;;;;5079690;28;21115;-71
2021/09/09 09:33:33;;;;;;;13.13;7.40;;;36.70;81.40;;;;;;5084325;28;20580;-71
2021/09/09 09:36:17;;;;;;;7.60;6.43;;;36.90;80.60;;;;;;5079686;28;20511;-69
2021/09/09 09:38:46;;;;;;;6.63;5.10;;;37.40;81.00;;;;;;5076811;28;20453;-72
2021/09/09 09:41:13;;;;;;;21.70;9.07;;;37.70;78.60;;;;;;5075891;28;20459;-71
2021/09/09 09:43:53;;;;;;;7.37;6.47;;;38.10;79.60;;;;;;5082199;28;20458;-72
2021/09/09 09:46:25;;;;;;;9.57;6.47;;;38.50;74.60;;;;;;5073364;28;20488;-72
2021/09/09 09:48:52;;;;;;;8.70;7.40;;;39.10;75.40;;;;;;5081454;28;20441;-72
2021/09/09 09:51:40;;;;;;;7.67;6.27;;;39.60;71.70;;;;;;5078008;28;20463;-72
2021/09/09 09:54:12;;;;;;;11.70;6.80;;;39.60;70.90;;;;;;5078824;28;21208;-71
2021/09/09 09:56:40;;;;;;;8.33;6.20;;;38.60;67.50;;;;;;5076279;28;20472;-70
2021/09/09 09:59:08;;;;;;;11.93;6.47;;;38.50;71.20;;;;;;5082165;28;20964;-71
2021/09/09 10:01:36;;;;;;;9.70;6.03;;;39.30;69.50;;;;;;5075104;28;20485;-71
2021/09/09 10:04:06;;;;;;;7.90;6.63;;;39.30;68.00;;;;;;5078114;28;20462;-72
2021/09/09 10:06:34;;;;;;;10.33;6.77;;;39.50;65.00;;;;;;5076591;28;20633;-70
2021/09/09 10:09:01;;;;;;;7.93;5.83;;;39.30;65.50;;;;;;5070278;28;21366;-71
2021/09/09 10:11:30;;;;;;;6.53;5.93;;;39.00;63.50;;;;;;5070825;28;20502;-70
2021/09/09 10:13:59;;;;;;;16.73;6.33;;;38.80;63.50;;;;;;5073576;28;20484;-71
2021/09/09 10:16:28;;;;;;;9.50;6.03;;;38.70;65.20;;;;;;5076316;28;20446;-71
2021/09/09 10:18:56;;;;;;;6.50;5.40;;;39.70;65.30;;;;;;5074597;28;20473;-71
2021/09/09 10:21:44;;;;;;;8.37;5.40;;;40.10;65.30;;;;;;5071876;28;21029;-71
2021/09/09 10:24:16;;;;;;;6.20;5.60;;;39.20;60.60;;;;;;5064754;28;20549;-70
2021/09/09 10:26:45;;;;;;;6.17;5.53;;;38.80;60.30;;;;;;5077230;28;20451;-71
2021/09/09 10:29:41;;;;;;;9.07;7.40;;;39.10;59.90;;;;;;5077839;28;20497;-69
2021/09/09 10:32:08;;;;;;;6.23;5.30;;;39.50;58.20;;;;;;5069901;28;20463;-71
2021/09/09 10:34:35;;;;;;;7.90;5.63;;;38.40;58.70;;;;;;5082462;28;20568;-71
2021/09/09 10:37:03;;;;;;;6.47;4.83;;;38.80;58.80;;;;;;5080831;28;20982;-70
2021/09/09 10:39:54;;;;;;;6.70;5.43;;;38.90;57.80;;;;;;5079344;28;20446;-70
2021/09/09 10:42:39;;;;;;;5.90;5.03;;;39.10;59.20;;;;;;5074839;28;20545;-69
2021/09/09 10:45:28;;;;;;;6.60;6.00;;;39.70;57.90;;;;;;5077227;28;20465;-70
2021/09/09 10:47:59;;;;;;;5.77;5.10;;;40.60;57.40;;;;;;5078239;28;20500;-71
2021/09/09 10:50:26;;;;;;;10.10;6.60;;;41.20;55.20;;;;;;5073945;28;20906;-70
2021/09/09 10:53:00;;;;;;;5.60;4.60;;;40.80;56.90;;;;;;5077985;28;20572;-71
2021/09/09 10:55:29;;;;;;;5.60;5.10;;;40.80;56.60;;;;;;5076728;28;20563;-71
2021/09/09 10:58:28;;;;;;;5.83;5.20;;;41.00;54.10;;;;;;5073622;28;20557;-71
2021/09/09 11:00:58;;;;;;;5.73;3.87;;;40.40;54.90;;;;;;5068499;28;20462;-72
2021/09/09 11:03:42;;;;;;;18.00;5.37;;;40.40;56.30;;;;;;5075118;28;20457;-72
2021/09/09 11:06:12;;;;;;;7.47;4.70;;;41.10;55.30;;;;;;5075326;28;21327;-71
2021/09/09 11:08:40;;;;;;;5.20;4.70;;;40.80;54.40;;;;;;5075642;28;20474;-72
2021/09/09 11:11:09;;;;;;;6.90;5.40;;;40.80;56.10;;;;;;5071292;28;20482;-72
2021/09/09 11:13:38;;;;;;;6.47;5.17;;;40.00;53.90;;;;;;5073489;28;20906;-71
2021/09/09 11:16:30;;;;;;;8.97;5.67;;;39.70;54.80;;;;;;5073578;28;20516;-71
2021/09/09 11:18:57;;;;;;;5.63;5.00;;;39.70;55.40;;;;;;5063095;28;20504;-72
2021/09/09 11:21:25;;;;;;;6.53;5.23;;;39.90;53.90;;;;;;5078937;28;20875;-71
2021/09/09 11:24:00;;;;;;;5.00;4.47;;;39.90;53.80;;;;;;5071224;28;20473;-72
2021/09/09 11:26:27;;;;;;;8.10;5.40;;;40.50;55.70;;;;;;5075686;28;20481;-72
2021/09/09 11:28:57;;;;;;;12.83;5.10;;;40.80;52.90;;;;;;5070290;28;20552;-72
2021/09/09 11:31:26;;;;;;;9.00;5.93;;;41.00;54.10;;;;;;5073666;28;20527;-71
2021/09/09 11:33:55;;;;;;;5.87;4.93;;;41.40;54.40;;;;;;5076645;28;20565;-71
2021/09/09 11:36:24;;;;;;;9.17;6.37;;;41.60;52.60;;;;;;5075845;28;20448;-73
2021/09/09 11:38:52;;;;;;;6.70;5.40;;;39.90;55.00;;;;;;5071009;28;21045;-72
2021/09/09 11:41:21;;;;;;;8.17;5.57;;;40.00;54.20;;;;;;5074746;28;20466;-70
2021/09/09 11:43:53;;;;;;;8.60;6.43;;;40.60;53.80;;;;;;5075262;28;20455;-71
2021/09/09 11:46:28;;;;;;;5.40;4.90;;;41.60;53.60;;;;;;5076816;28;20581;-70
2021/09/09 11:48:56;;;;;;;7.87;5.30;;;41.50;53.30;;;;;;5069673;28;21103;-71
2021/09/09 11:51:41;;;;;;;7.57;5.73;;;41.50;52.30;;;;;;5071399;28;20558;-71
2021/09/09 11:54:10;;;;;;;12.17;6.10;;;41.40;52.00;;;;;;5075222;28;20568;-70
2021/09/09 11:56:38;;;;;;;6.90;4.47;;;40.70;52.80;;;;;;5072999;28;20477;-71
2021/09/09 11:59:10;;;;;;;24.83;6.40;;;41.10;53.20;;;;;;5075341;28;20604;-71
2021/09/09 12:01:39;;;;;;;8.50;5.70;;;40.70;53.20;;;;;;5076883;28;20536;-70
2021/09/09 12:04:07;;;;;;;5.97;5.37;;;39.80;54.00;;;;;;5067879;28;20713;-69
2021/09/09 12:06:34;;;;;;;6.70;6.00;;;39.70;54.40;;;;;;5073207;28;20532;-71
2021/09/09 12:09:01;;;;;;;6.57;5.07;;;40.20;54.10;;;;;;5068500;28;21290;-70
2021/09/09 12:11:28;;;;;;;16.83;5.60;;;40.50;53.90;;;;;;5072868;28;20461;-70
2021/09/09 12:13:55;;;;;;;8.80;6.53;;;40.30;53.70;;;;;;5074236;28;21044;-71
2021/09/09 12:16:24;;;;;;;7.87;5.57;;;40.30;53.50;;;;;;5078507;28;20445;-69
2021/09/09 12:19:06;;;;;;;5.10;4.60;;;40.30;54.30;;;;;;5078305;28;20457;-71
2021/09/09 12:21:34;;;;;;;6.43;5.10;;;40.70;55.40;;;;;;5074641;28;20462;-71
2021/09/09 12:24:04;;;;;;;5.87;4.87;;;40.70;53.60;;;;;;5075248;28;20533;-69
2021/09/09 12:26:33;;;;;;;30.10;6.27;;;40.30;53.40;;;;;;5070858;28;20811;-71
2021/09/09 12:29:01;;;;;;;8.80;5.10;;;40.50;53.50;;;;;;5067432;28;20524;-71
2021/09/09 12:31:32;;;;;;;9.17;6.00;;;39.50;54.80;;;;;;5063659;28;22521;-71
2021/09/09 12:34:07;;;;;;;12.10;6.37;;;39.20;55.40;;;;;;5076544;28;20489;-72
2021/09/09 12:36:41;;;;;;;34.43;12.50;;;39.40;55.00;;;;;;5078637;28;20442;-71
2021/09/09 12:39:08;;;;;;;9.10;5.20;;;39.70;55.10;;;;;;5077680;28;20503;-69
2021/09/09 12:41:35;;;;;;;19.17;7.30;;;39.90;54.80;;;;;;5074585;28;20533;-71
2021/09/09 12:44:10;;;;;;;5.80;4.50;;;39.40;55.30;;;;;;5075473;28;20442;-73
2021/09/09 12:46:41;;;;;;;5.43;4.53;;;37.90;55.60;;;;;;5084178;28;20551;-71
2021/09/09 12:49:12;;;;;;;6.70;5.83;;;37.50;56.50;;;;;;5075511;28;20658;-74